createdAt,value
2019-03-17T00:00:16.274Z,0.90
2019-03-17T00:02:44.575Z,0.90
2019-03-17T00:05:13.318Z,0.83
2019-03-17T00:07:41.696Z,0.93
2019-03-17T00:10:10.077Z,0.87
2019-03-17T00:12:38.938Z,1.10
2019-03-17T00:15:07.622Z,0.90
2019-03-17T00:17:36.453Z,0.90
2019-03-17T00:20:05.549Z,0.90
2019-03-17T00:22:34.346Z,0.83
2019-03-17T00:25:09.146Z,1.10
2019-03-17T00:27:33.195Z,1.27
2019-03-17T00:30:02.045Z,0.90
2019-03-17T00:32:30.826Z,0.70
2019-03-17T00:34:59.117Z,0.87
2019-03-17T00:37:27.427Z,1.00
2019-03-17T00:39:55.752Z,1.43
2019-03-17T00:42:24.508Z,1.03
2019-03-17T00:44:53.253Z,0.80
2019-03-17T00:47:21.641Z,0.87
2019-03-17T00:49:50.373Z,0.90
2019-03-17T00:52:19.158Z,0.93
2019-03-17T00:54:47.887Z,1.50
2019-03-17T00:57:16.650Z,1.43
2019-03-17T00:59:45.553Z,0.97
2019-03-17T01:02:14.360Z,1.27
2019-03-17T01:04:51.785Z,1.20
2019-03-17T01:07:13.134Z,1.13
2019-03-17T01:09:41.786Z,1.37
2019-03-17T01:12:10.641Z,1.10
2019-03-17T01:14:52.846Z,0.93
2019-03-17T01:17:21.914Z,0.90
2019-03-17T01:19:50.661Z,0.90
2019-03-17T01:22:19.674Z,1.43
2019-03-17T01:24:48.725Z,0.90
2019-03-17T01:27:17.477Z,1.30
2019-03-17T01:29:46.215Z,1.10
2019-03-17T01:32:14.969Z,1.20
2019-03-17T01:34:43.338Z,1.33
2019-03-17T01:37:11.629Z,0.90
2019-03-17T01:39:40.404Z,1.23
2019-03-17T01:42:08.700Z,1.43
2019-03-17T01:44:37.465Z,1.40
2019-03-17T01:47:05.765Z,1.00
2019-03-17T01:49:34.534Z,1.00
2019-03-17T01:52:03.289Z,1.00
2019-03-17T01:54:32.040Z,1.20
2019-03-17T01:57:01.015Z,1.13
2019-03-17T01:59:29.768Z,1.60
2019-03-17T02:01:58.497Z,1.03
2019-03-17T02:04:27.243Z,1.40
2019-03-17T02:06:55.556Z,1.20
2019-03-17T02:09:23.859Z,1.00
2019-03-17T02:11:52.597Z,1.23
2019-03-17T02:14:21.352Z,1.30
2019-03-17T02:16:49.709Z,1.20
2019-03-17T02:19:18.017Z,1.23
2019-03-17T02:21:46.753Z,0.90
2019-03-17T02:24:15.497Z,1.40
2019-03-17T02:26:43.784Z,1.30
2019-03-17T02:29:12.106Z,1.40
2019-03-17T02:31:40.846Z,1.73
2019-03-17T02:34:11.758Z,1.20
2019-03-17T02:36:39.590Z,0.80
2019-03-17T02:39:08.402Z,1.67
2019-03-17T02:41:37.143Z,1.30
2019-03-17T02:44:05.450Z,1.13
2019-03-17T02:46:33.741Z,1.37
2019-03-17T02:49:02.473Z,1.20
2019-03-17T02:51:31.223Z,1.47
2019-03-17T02:53:59.962Z,1.10
2019-03-17T02:56:28.943Z,1.33
2019-03-17T02:58:57.681Z,0.93
2019-03-17T03:01:26.666Z,1.40
2019-03-17T03:03:54.946Z,0.97
2019-03-17T03:06:23.241Z,1.40
2019-03-17T03:08:51.536Z,0.93
2019-03-17T03:11:20.284Z,1.37
2019-03-17T03:13:49.021Z,1.40
2019-03-17T03:16:17.631Z,1.30
2019-03-17T03:18:46.373Z,1.20
2019-03-17T03:21:15.110Z,1.40
2019-03-17T03:23:43.846Z,1.27
2019-03-17T03:26:12.578Z,1.57
2019-03-17T03:28:41.314Z,1.40
2019-03-17T03:31:10.074Z,2.00
2019-03-17T03:33:38.811Z,2.00
2019-03-17T03:36:11.411Z,1.23
2019-03-17T03:38:37.577Z,1.60
2019-03-17T03:41:05.874Z,1.70
2019-03-17T03:43:34.607Z,1.87
2019-03-17T03:46:02.909Z,1.37
2019-03-17T03:48:31.219Z,1.60
2019-03-17T03:50:59.563Z,1.47
2019-03-17T03:53:28.308Z,1.60
2019-03-17T03:55:57.110Z,1.50
2019-03-17T03:58:25.429Z,1.70
2019-03-17T04:00:54.390Z,1.30
2019-03-17T04:03:23.381Z,1.63
2019-03-17T04:05:52.178Z,1.43
2019-03-17T04:08:20.938Z,1.33
2019-03-17T04:10:49.239Z,1.90
2019-03-17T04:13:17.602Z,1.53
2019-03-17T04:15:45.970Z,1.50
2019-03-17T04:18:14.714Z,2.70
2019-03-17T04:20:43.530Z,1.70
2019-03-17T04:23:12.518Z,2.03
2019-03-17T04:25:41.269Z,1.47
2019-03-17T04:28:10.019Z,1.40
2019-03-17T04:30:39.146Z,1.23
2019-03-17T04:33:07.885Z,1.60
2019-03-17T04:35:36.195Z,2.43
2019-03-17T04:38:05.002Z,1.87
2019-03-17T04:40:33.741Z,1.27
2019-03-17T04:43:02.321Z,1.77
2019-03-17T04:45:30.614Z,1.67
2019-03-17T04:47:59.365Z,1.90
2019-03-17T04:50:27.657Z,1.20
2019-03-17T04:52:56.196Z,1.33
2019-03-17T04:55:24.937Z,2.13
2019-03-17T04:57:53.685Z,1.43
2019-03-17T05:00:22.418Z,1.77
2019-03-17T05:02:51.235Z,1.80
2019-03-17T05:05:19.554Z,1.27
2019-03-17T05:07:47.836Z,1.67
2019-03-17T05:10:16.633Z,1.43
2019-03-17T05:12:45.485Z,1.33
2019-03-17T05:15:14.218Z,1.20
2019-03-17T05:17:43.014Z,1.37
2019-03-17T05:20:11.929Z,2.10
2019-03-17T05:22:40.682Z,1.77
2019-03-17T05:25:09.505Z,1.13
2019-03-17T05:27:37.872Z,1.27
2019-03-17T05:30:07.077Z,1.30
2019-03-17T05:32:35.360Z,1.90
2019-03-17T05:35:04.327Z,1.00
2019-03-17T05:37:33.053Z,1.50
2019-03-17T05:40:01.854Z,1.97
2019-03-17T05:42:30.140Z,2.00
2019-03-17T05:44:58.441Z,3.17
2019-03-17T05:47:27.434Z,2.20
2019-03-17T05:49:56.162Z,1.40
2019-03-17T05:52:24.899Z,1.60
2019-03-17T05:54:53.501Z,1.20
2019-03-17T05:57:21.841Z,1.30
2019-03-17T05:59:50.202Z,1.40
2019-03-17T06:02:18.927Z,1.40
2019-03-17T06:04:47.229Z,0.93
2019-03-17T06:07:18.844Z,1.20
2019-03-17T06:09:45.540Z,1.30
2019-03-17T06:12:13.824Z,1.43
2019-03-17T06:14:42.573Z,1.20
2019-03-17T06:17:10.877Z,1.33
2019-03-17T06:19:39.641Z,0.93
2019-03-17T06:22:07.937Z,1.83
2019-03-17T06:24:36.700Z,1.07
2019-03-17T06:27:05.437Z,1.20
2019-03-17T06:29:34.177Z,2.07
2019-03-17T06:32:02.553Z,1.30
2019-03-17T06:34:31.293Z,1.30
2019-03-17T06:36:59.589Z,1.20
2019-03-17T06:39:28.053Z,1.53
2019-03-17T06:41:56.336Z,1.40
2019-03-17T06:44:24.661Z,1.33
2019-03-17T06:46:53.390Z,1.07
2019-03-17T06:49:21.674Z,0.90
2019-03-17T06:51:50.421Z,1.17
2019-03-17T06:54:19.166Z,1.37
2019-03-17T06:56:47.914Z,1.17
2019-03-17T06:59:17.777Z,1.03
2019-03-17T07:01:46.591Z,0.80
2019-03-17T07:04:15.334Z,0.97
2019-03-17T07:06:43.887Z,0.80
2019-03-17T07:09:12.199Z,1.10
2019-03-17T07:11:40.937Z,0.60
2019-03-17T07:14:09.230Z,0.97
2019-03-17T07:16:37.537Z,0.70
2019-03-17T07:19:05.841Z,0.80
2019-03-17T07:21:34.617Z,0.50
2019-03-17T07:24:03.498Z,1.00
2019-03-17T07:26:32.249Z,0.70
2019-03-17T07:29:01.006Z,1.37
2019-03-17T07:31:29.809Z,1.83
2019-03-17T07:33:58.640Z,0.60
2019-03-17T07:36:27.383Z,0.63
2019-03-17T07:38:55.668Z,1.23
2019-03-17T07:41:26.597Z,1.33
2019-03-17T07:43:55.373Z,2.30
2019-03-17T07:46:23.673Z,3.23
2019-03-17T07:48:52.434Z,1.40
2019-03-17T07:51:49.190Z,3.50
2019-03-17T07:54:17.580Z,3.03
2019-03-17T07:56:46.373Z,1.30
2019-03-17T07:59:15.118Z,2.50
2019-03-17T08:01:43.420Z,1.40
2019-03-17T08:04:12.172Z,1.10
2019-03-17T08:06:41.001Z,0.40
2019-03-17T08:09:09.288Z,0.70
2019-03-17T08:11:37.657Z,0.37
2019-03-17T08:14:06.405Z,0.40
2019-03-17T08:16:34.707Z,0.50
2019-03-17T08:19:03.521Z,0.30
2019-03-17T08:21:32.449Z,0.43
2019-03-17T08:24:01.324Z,0.50
2019-03-17T08:26:30.162Z,0.40
2019-03-17T08:28:58.964Z,0.57
2019-03-17T08:31:27.957Z,0.63
2019-03-17T08:33:56.704Z,0.30
2019-03-17T08:36:25.545Z,0.40
2019-03-17T08:38:54.289Z,0.53
2019-03-17T08:41:23.405Z,1.17
2019-03-17T08:43:54.531Z,0.50
2019-03-17T08:46:21.730Z,0.73
2019-03-17T08:48:50.033Z,0.60
2019-03-17T08:51:18.898Z,0.60
2019-03-17T08:53:47.750Z,0.60
2019-03-17T08:56:16.528Z,0.30
2019-03-17T08:58:45.267Z,0.50
2019-03-17T09:01:14.001Z,0.40
2019-03-17T09:03:42.836Z,0.70
2019-03-17T09:06:11.137Z,0.40
2019-03-17T09:08:39.536Z,0.67
2019-03-17T09:11:08.261Z,0.50
2019-03-17T09:13:37.085Z,0.37
2019-03-17T09:16:05.393Z,0.43
2019-03-17T09:18:33.704Z,0.80
2019-03-17T09:21:01.997Z,0.40
2019-03-17T09:23:30.769Z,0.53
2019-03-17T09:25:59.519Z,0.60
2019-03-17T09:28:28.501Z,0.40
2019-03-17T09:30:57.245Z,0.40
2019-03-17T09:33:26.146Z,0.50
2019-03-17T09:35:55.153Z,0.83
2019-03-17T09:38:23.482Z,0.80
2019-03-17T09:40:52.277Z,0.50
2019-03-17T09:43:21.050Z,0.60
2019-03-17T09:45:49.354Z,0.70
2019-03-17T09:48:17.653Z,0.50
2019-03-17T09:50:46.386Z,0.50
2019-03-17T09:53:15.127Z,0.73
2019-03-17T09:55:43.412Z,0.40
2019-03-17T09:58:12.408Z,0.40
2019-03-17T10:00:41.929Z,0.70
2019-03-17T10:03:10.696Z,0.70
2019-03-17T10:05:39.429Z,0.83
2019-03-17T10:08:08.229Z,0.60
2019-03-17T10:10:36.981Z,0.60
2019-03-17T10:13:05.261Z,0.50
2019-03-17T10:15:33.557Z,0.40
2019-03-17T10:18:01.950Z,0.50
2019-03-17T10:20:30.267Z,0.50
2019-03-17T10:22:59.012Z,0.50
2019-03-17T10:25:27.799Z,0.63
2019-03-17T10:27:56.607Z,0.63
2019-03-17T10:30:25.483Z,0.67
2019-03-17T10:32:54.225Z,0.87
2019-03-17T10:35:22.987Z,0.50
2019-03-17T10:37:51.293Z,0.57
2019-03-17T10:40:19.597Z,0.70
2019-03-17T10:42:47.954Z,0.50
2019-03-17T10:45:16.706Z,1.20
2019-03-17T10:47:45.594Z,1.13
2019-03-17T10:50:14.703Z,0.90
2019-03-17T10:52:43.065Z,1.40
2019-03-17T10:55:12.093Z,1.10
2019-03-17T10:57:40.921Z,0.90
2019-03-17T11:00:12.063Z,1.00
2019-03-17T11:02:40.825Z,0.60
2019-03-17T11:05:09.954Z,1.60
2019-03-17T11:07:38.725Z,0.80
2019-03-17T11:10:07.990Z,1.03
2019-03-17T11:12:36.280Z,0.70
2019-03-17T11:15:05.922Z,0.40
2019-03-17T11:17:34.221Z,1.40
2019-03-17T11:20:03.001Z,1.10
2019-03-17T11:22:31.289Z,1.03
2019-03-17T11:25:00.039Z,1.50
2019-03-17T11:27:28.813Z,0.70
2019-03-17T11:29:57.640Z,0.67
2019-03-17T11:32:26.012Z,0.80
2019-03-17T11:34:54.772Z,1.20
2019-03-17T11:37:23.737Z,0.80
2019-03-17T11:39:52.591Z,0.77
2019-03-17T11:42:20.916Z,0.50
2019-03-17T11:44:49.732Z,1.20
2019-03-17T11:47:18.027Z,0.50
2019-03-17T11:49:46.420Z,0.40
2019-03-17T11:52:15.214Z,0.50
2019-03-17T11:54:44.090Z,0.70
2019-03-17T11:57:12.935Z,0.47
2019-03-17T11:59:41.757Z,1.03
2019-03-17T12:02:10.162Z,0.50
2019-03-17T12:04:39.050Z,0.70
2019-03-17T12:07:07.342Z,0.73
2019-03-17T12:09:35.739Z,0.50
2019-03-17T12:12:04.577Z,0.50
2019-03-17T12:14:33.621Z,0.70
2019-03-17T12:17:02.123Z,0.70
2019-03-17T12:19:32.802Z,0.80
2019-03-17T12:22:09.083Z,0.70
2019-03-17T12:24:32.250Z,0.30
2019-03-17T12:27:00.995Z,0.60
2019-03-17T12:29:29.365Z,0.40
2019-03-17T12:31:58.274Z,0.77
2019-03-17T12:34:28.541Z,0.67
2019-03-17T12:36:57.485Z,0.80
2019-03-17T12:39:25.905Z,0.50
2019-03-17T12:41:54.738Z,0.40
2019-03-17T12:44:23.481Z,0.30
2019-03-17T12:46:51.776Z,0.50
2019-03-17T12:49:20.363Z,0.50
2019-03-17T12:51:49.174Z,0.50
2019-03-17T12:54:17.925Z,0.37
2019-03-17T12:56:46.229Z,0.90
2019-03-17T12:59:15.055Z,0.30
2019-03-17T13:01:43.817Z,0.63
2019-03-17T13:04:12.209Z,0.50
2019-03-17T13:06:41.244Z,0.90
2019-03-17T13:09:09.540Z,0.50
2019-03-17T13:11:38.274Z,0.53
2019-03-17T13:14:07.018Z,0.50
2019-03-17T13:16:35.537Z,0.50
2019-03-17T13:19:03.926Z,0.87
2019-03-17T13:21:32.769Z,0.47
2019-03-17T13:24:01.524Z,0.70
2019-03-17T13:26:30.280Z,0.60
2019-03-17T13:28:59.076Z,0.40
2019-03-17T13:31:27.822Z,0.60
2019-03-17T13:33:56.573Z,0.50
2019-03-17T13:36:25.309Z,0.50
2019-03-17T13:38:53.603Z,0.70
2019-03-17T13:41:21.888Z,0.63
2019-03-17T13:43:50.286Z,0.50
2019-03-17T13:46:19.044Z,0.80
2019-03-17T13:48:47.348Z,0.57
2019-03-17T13:51:15.645Z,0.63
2019-03-17T13:53:44.377Z,0.60
2019-03-17T13:56:13.104Z,0.70
2019-03-17T13:58:41.849Z,0.47
2019-03-17T14:01:10.597Z,0.40
2019-03-17T14:03:38.917Z,0.80
2019-03-17T14:06:07.293Z,0.80
2019-03-17T14:08:35.587Z,0.50
2019-03-17T14:11:04.401Z,0.70
2019-03-17T14:13:33.397Z,0.87
2019-03-17T14:16:01.677Z,0.50
2019-03-17T14:18:30.504Z,0.70
2019-03-17T14:20:59.242Z,0.60
2019-03-17T14:23:27.544Z,0.70
2019-03-17T14:25:56.278Z,0.70
2019-03-17T14:28:25.009Z,0.50
2019-03-17T14:30:53.754Z,0.80
2019-03-17T14:33:22.513Z,0.67
2019-03-17T14:35:51.258Z,0.50
2019-03-17T14:38:19.549Z,0.90
2019-03-17T14:40:53.330Z,0.97
2019-03-17T14:43:18.909Z,0.70
2019-03-17T14:45:47.201Z,0.70
2019-03-17T14:48:15.486Z,0.73
2019-03-17T14:50:44.473Z,0.80
2019-03-17T14:53:13.201Z,0.40
2019-03-17T14:55:44.637Z,0.87
2019-03-17T14:58:13.368Z,1.07
2019-03-17T15:00:41.737Z,0.70
2019-03-17T15:03:10.045Z,0.73
2019-03-17T15:05:38.573Z,1.00
2019-03-17T15:08:06.865Z,1.13
2019-03-17T15:10:35.225Z,0.70
2019-03-17T15:13:03.509Z,0.80
2019-03-17T15:15:32.534Z,1.00
2019-03-17T15:18:01.293Z,0.70
2019-03-17T15:20:30.165Z,0.90
2019-03-17T15:22:59.230Z,0.60
2019-03-17T15:25:27.541Z,2.00
2019-03-17T15:27:56.311Z,1.07
2019-03-17T15:30:24.642Z,2.00
2019-03-17T15:32:53.457Z,0.90
2019-03-17T15:35:22.273Z,0.60
2019-03-17T15:37:51.397Z,0.50
2019-03-17T15:40:19.788Z,0.60
2019-03-17T15:42:48.676Z,0.50
2019-03-17T15:45:17.573Z,0.47
2019-03-17T15:47:45.890Z,0.40
2019-03-17T15:50:16.321Z,0.73
2019-03-17T15:52:45.124Z,0.60
2019-03-17T15:55:13.527Z,0.70
2019-03-17T15:57:42.405Z,0.70
2019-03-17T16:00:24.234Z,0.70
2019-03-17T16:02:44.834Z,0.70
2019-03-17T16:05:13.247Z,0.60
2019-03-17T16:07:42.686Z,0.50
2019-03-17T16:10:11.769Z,0.70
2019-03-17T16:12:40.669Z,1.23
2019-03-17T16:15:10.775Z,0.73
2019-03-17T16:17:39.510Z,0.60
2019-03-17T16:20:09.699Z,0.90
2019-03-17T16:22:38.529Z,0.60
2019-03-17T16:25:07.858Z,0.60
2019-03-17T16:27:36.150Z,2.20
2019-03-17T16:30:05.741Z,1.20
2019-03-17T16:32:34.476Z,1.70
2019-03-17T16:35:02.758Z,1.87
2019-03-17T16:37:31.101Z,7.97
2019-03-17T16:39:59.420Z,8.80
2019-03-17T16:42:27.722Z,3.00
2019-03-17T16:44:56.444Z,2.33
2019-03-17T16:47:24.737Z,2.30
2019-03-17T16:49:53.056Z,1.73
2019-03-17T16:52:21.881Z,0.83
2019-03-17T16:54:50.620Z,1.30
2019-03-17T16:57:19.382Z,0.90
2019-03-17T16:59:48.119Z,0.67
2019-03-17T17:02:16.877Z,1.30
2019-03-17T17:04:45.185Z,1.20
2019-03-17T17:07:13.476Z,1.33
2019-03-17T17:09:42.450Z,1.13
2019-03-17T17:12:11.185Z,0.70
2019-03-17T17:14:39.468Z,0.80
2019-03-17T17:17:07.880Z,0.70
2019-03-17T17:19:36.689Z,0.70
2019-03-17T17:22:05.446Z,1.00
2019-03-17T17:24:34.246Z,0.50
2019-03-17T17:27:03.024Z,0.97
2019-03-17T17:29:33.715Z,1.20
2019-03-17T17:32:02.098Z,1.10
2019-03-17T17:34:30.842Z,1.13
2019-03-17T17:36:59.138Z,1.00
2019-03-17T17:39:27.451Z,1.03
2019-03-17T17:42:07.954Z,0.70
2019-03-17T17:44:25.769Z,0.50
2019-03-17T17:46:54.121Z,0.50
2019-03-17T17:49:22.845Z,0.50
2019-03-17T17:51:51.658Z,0.70
2019-03-17T17:54:20.417Z,0.70
2019-03-17T17:56:49.198Z,0.77
2019-03-17T17:59:17.949Z,0.70
2019-03-17T18:01:46.388Z,0.77
2019-03-17T18:04:15.163Z,0.63
2019-03-17T18:06:43.468Z,0.70
2019-03-17T18:09:11.762Z,0.70
2019-03-17T18:11:40.506Z,0.67
2019-03-17T18:14:09.248Z,0.60
2019-03-17T18:16:37.581Z,0.60
2019-03-17T18:19:05.898Z,0.60
2019-03-17T18:21:34.219Z,0.50
2019-03-17T18:24:03.026Z,0.73
2019-03-17T18:26:31.885Z,0.50
2019-03-17T18:29:00.649Z,0.80
2019-03-17T18:31:29.733Z,0.50
2019-03-17T18:33:58.068Z,0.70
2019-03-17T18:36:26.819Z,0.63
2019-03-17T18:38:55.180Z,0.60
2019-03-17T18:41:23.532Z,0.53
2019-03-17T18:43:51.859Z,0.73
2019-03-17T18:46:20.598Z,0.60
2019-03-17T18:48:49.381Z,0.57
2019-03-17T18:51:18.290Z,0.60
2019-03-17T18:53:46.597Z,0.60
2019-03-17T18:56:15.345Z,1.00
2019-03-17T18:58:44.113Z,1.23
2019-03-17T19:01:13.105Z,1.10
2019-03-17T19:03:41.885Z,1.27
2019-03-17T19:06:10.737Z,1.50
2019-03-17T19:08:39.473Z,1.57
2019-03-17T19:11:07.857Z,0.67
2019-03-17T19:13:36.631Z,0.73
2019-03-17T19:16:05.397Z,1.10
2019-03-17T19:18:33.782Z,0.70
2019-03-17T19:21:02.091Z,1.10
2019-03-17T19:23:30.874Z,1.10
2019-03-17T19:25:59.657Z,1.10
2019-03-17T19:28:28.398Z,0.90
2019-03-17T19:30:56.717Z,0.50
2019-03-17T19:33:25.782Z,0.57
2019-03-17T19:35:55.381Z,0.50
2019-03-17T19:38:24.418Z,1.00
2019-03-17T19:40:53.192Z,0.60
2019-03-17T19:43:22.017Z,0.80
2019-03-17T19:45:50.353Z,1.00
2019-03-17T19:48:19.170Z,0.80
2019-03-17T19:50:47.473Z,0.93
2019-03-17T19:53:16.293Z,0.90
2019-03-17T19:55:45.153Z,0.87
2019-03-17T19:58:13.993Z,1.17
2019-03-17T20:00:42.829Z,0.80
2019-03-17T20:03:11.469Z,0.70
2019-03-17T20:05:39.849Z,1.10
2019-03-17T20:08:08.665Z,1.35
2019-03-17T20:10:37.431Z,1.30
2019-03-17T20:13:11.588Z,1.00
2019-03-17T20:15:35.795Z,1.27
2019-03-17T20:18:04.609Z,1.07
2019-03-17T20:20:33.816Z,1.15
2019-03-17T20:23:02.356Z,1.53
2019-03-17T20:25:30.660Z,1.03
2019-03-17T20:27:59.505Z,1.35
2019-03-17T20:30:28.412Z,1.00
2019-03-17T20:32:57.243Z,1.30
2019-03-17T20:35:25.565Z,1.30
2019-03-17T20:37:53.865Z,1.00
2019-03-17T20:40:22.650Z,1.17
2019-03-17T20:42:51.402Z,1.03
2019-03-17T20:45:20.610Z,1.17
2019-03-17T20:47:49.638Z,1.10
2019-03-17T20:50:18.556Z,0.98
2019-03-17T20:52:47.378Z,1.20
2019-03-17T20:55:19.305Z,1.20
2019-03-17T20:57:48.053Z,1.00
2019-03-17T21:00:16.885Z,0.65
2019-03-17T21:02:45.891Z,0.70
2019-03-17T21:05:14.810Z,0.80
2019-03-17T21:07:43.113Z,1.07
2019-03-17T21:10:11.525Z,0.93
2019-03-17T21:12:39.841Z,0.85
2019-03-17T21:15:09.910Z,0.85
2019-03-17T21:17:38.861Z,0.90
2019-03-17T21:20:08.341Z,0.70
2019-03-17T21:22:37.360Z,1.12
2019-03-17T21:25:05.815Z,1.00
2019-03-17T21:27:34.155Z,0.90
2019-03-17T21:30:03.128Z,0.90
2019-03-17T21:32:31.463Z,0.78
2019-03-17T21:35:00.452Z,0.88
2019-03-17T21:37:28.757Z,0.90
2019-03-17T21:39:57.066Z,1.07
2019-03-17T21:42:25.394Z,1.00
2019-03-17T21:44:53.705Z,0.93
2019-03-17T21:47:22.031Z,0.80
2019-03-17T21:49:50.321Z,1.40
2019-03-17T21:52:19.067Z,0.93
2019-03-17T21:54:47.847Z,1.12
2019-03-17T21:57:16.614Z,0.68
2019-03-17T21:59:45.377Z,1.40
2019-03-17T22:02:14.131Z,1.35
2019-03-17T22:04:42.885Z,0.80
2019-03-17T22:07:11.201Z,1.17
2019-03-17T22:09:39.508Z,1.25
2019-03-17T22:12:08.090Z,1.30
2019-03-17T22:14:36.863Z,1.00
2019-03-17T22:17:05.630Z,1.00
2019-03-17T22:19:34.094Z,0.93
2019-03-17T22:22:02.928Z,1.20
2019-03-17T22:24:31.689Z,1.00
2019-03-17T22:27:00.504Z,0.80
2019-03-17T22:29:29.278Z,0.93
2019-03-17T22:31:57.625Z,1.07
2019-03-17T22:34:26.405Z,0.80
2019-03-17T22:36:55.151Z,0.80
2019-03-17T22:39:23.448Z,0.80
2019-03-17T22:41:52.184Z,1.10
2019-03-17T22:44:24.693Z,1.15
2019-03-17T22:46:50.518Z,1.00
2019-03-17T22:49:18.818Z,0.60
2019-03-17T22:51:47.574Z,0.90
2019-03-17T22:54:16.575Z,1.25
2019-03-17T22:56:45.337Z,0.70
2019-03-17T22:59:14.133Z,1.15
2019-03-17T23:01:42.889Z,1.20
2019-03-17T23:04:11.638Z,1.30
2019-03-17T23:06:39.936Z,1.40
2019-03-17T23:09:08.325Z,1.00
2019-03-17T23:11:36.635Z,1.25
2019-03-17T23:14:05.457Z,1.10
2019-03-17T23:16:34.190Z,1.55
2019-03-17T23:19:02.941Z,0.90
2019-03-17T23:21:31.674Z,1.33
2019-03-17T23:23:59.977Z,1.20
2019-03-17T23:26:28.758Z,1.00
2019-03-17T23:28:57.513Z,1.42
2019-03-17T23:31:26.304Z,1.43
2019-03-17T23:33:55.057Z,1.07
2019-03-17T23:36:23.877Z,1.17
2019-03-17T23:38:52.675Z,1.00
2019-03-17T23:41:21.486Z,0.60
2019-03-17T23:43:49.981Z,1.37
2019-03-17T23:46:18.842Z,1.07
2019-03-17T23:48:47.649Z,0.90
2019-03-17T23:51:16.445Z,1.50
2019-03-17T23:53:45.292Z,1.17
2019-03-17T23:56:13.569Z,1.33
2019-03-17T23:58:42.301Z,1.30
